Time;durP1;ratioP1;P1;durP2;ratioP2;P2;SDS_P1;SDS_P2;PMS_P1;PMS_P2;Temp;Humidity;BMP_temperature;BMP_pressure;BME280_temperature;BME280_humidity;BME280_pressure;Samples;Min_cycle;Max_cycle;Signal;HPM_P1;HPM_P2
2022/01/26 00:07:09;;;;;;;68.37;28.23;;;5.00;99.90;;;;;;5010851;28;20549;-57
2022/01/26 00:09:35;;;;;;;72.50;29.73;;;5.00;99.90;;;;;;5010942;28;20174;-57
2022/01/26 00:12:01;;;;;;;69.97;29.27;;;5.00;99.90;;;;;;5011099;28;20652;-58
2022/01/26 00:14:26;;;;;;;70.37;29.13;;;5.00;99.90;;;;;;5018909;28;20304;-56
2022/01/26 00:16:52;;;;;;;77.63;30.60;;;4.90;99.90;;;;;;5012488;28;20251;-57
2022/01/26 00:19:30;;;;;;;71.53;29.90;;;5.00;99.90;;;;;;5030338;28;20185;-57
2022/01/26 00:21:57;;;;;;;68.73;28.73;;;5.00;99.90;;;;;;5030639;28;20177;-58
2022/01/26 00:24:54;;;;;;;73.00;30.60;;;5.00;99.90;;;;;;5030170;28;20173;-57
2022/01/26 00:27:33;;;;;;;74.53;30.47;;;5.00;99.90;;;;;;5030455;28;20173;-57
2022/01/26 00:31:12;;;;;;;77.00;30.57;;;5.00;99.90;;;;;;5030702;28;20169;-57
2022/01/26 00:34:17;;;;;;;73.73;29.80;;;5.00;99.90;;;;;;5030062;28;20197;-57
2022/01/26 00:41:33;;;;;;;65.27;27.07;;;5.10;99.90;;;;;;5007905;28;20225;-56
2022/01/26 00:44:00;;;;;;;60.73;25.97;;;5.00;99.90;;;;;;5011662;28;20175;-56
2022/01/26 00:46:26;;;;;;;61.97;26.70;;;5.00;99.90;;;;;;5030465;28;20177;-56
2022/01/26 00:48:52;;;;;;;69.50;28.13;;;5.00;99.90;;;;;;5012285;28;20184;-56
2022/01/26 00:51:21;;;;;;;67.83;27.37;;;5.00;99.90;;;;;;5010580;28;20265;-56
2022/01/26 00:54:07;;;;;;;68.57;26.07;;;4.90;99.90;;;;;;5010267;28;20582;-56
2022/01/26 00:56:33;;;;;;;66.60;27.10;;;4.60;99.90;;;;;;5010647;28;20289;-55
2022/01/26 00:58:58;;;;;;;70.53;27.93;;;4.90;99.90;;;;;;5027658;28;20281;-56
2022/01/26 01:01:25;;;;;;;65.00;27.63;;;5.00;99.90;;;;;;5030416;28;20645;-56
2022/01/26 01:03:51;;;;;;;73.27;27.37;;;5.00;99.90;;;;;;5030344;28;20171;-56
2022/01/26 01:06:27;;;;;;;61.13;26.27;;;5.00;99.90;;;;;;5030317;28;20193;-56
2022/01/26 01:08:56;;;;;;;66.03;27.50;;;5.00;99.90;;;;;;5023281;28;20206;-56
2022/01/26 01:11:23;;;;;;;62.37;26.00;;;4.90;99.90;;;;;;5024064;28;20174;-56
2022/01/26 01:13:49;;;;;;;65.53;27.27;;;4.90;99.90;;;;;;5029960;28;20762;-59
2022/01/26 01:16:20;;;;;;;65.03;27.00;;;5.00;99.90;;;;;;5027504;28;20193;-57
2022/01/26 01:18:58;;;;;;;73.13;27.87;;;5.00;99.90;;;;;;5032976;28;20190;-57
2022/01/26 01:31:55;;;;;;;70.93;29.03;;;5.00;99.90;;;;;;5033464;28;20158;-54
2022/01/26 01:34:29;;;;;;;70.03;28.50;;;5.00;99.90;;;;;;5033453;28;20205;-56
2022/01/26 01:37:01;;;;;;;65.53;28.47;;;5.00;99.90;;;;;;5033355;28;20208;-57
2022/01/26 01:39:29;;;;;;;57.90;26.23;;;5.00;99.90;;;;;;5033146;28;20645;-57
2022/01/26 01:41:55;;;;;;;65.00;27.07;;;5.00;99.90;;;;;;5032698;28;20178;-54
2022/01/26 01:44:21;;;;;;;73.57;28.77;;;4.90;99.90;;;;;;5033299;28;20223;-55
2022/01/26 01:46:47;;;;;;;66.90;28.17;;;5.00;99.90;;;;;;5033286;28;20224;-56
2022/01/26 01:49:15;;;;;;;72.70;28.23;;;4.90;99.90;;;;;;5032859;28;20182;-56
2022/01/26 01:51:46;;;;;;;65.60;26.70;;;5.00;99.90;;;;;;5033264;28;20166;-56
2022/01/26 01:54:15;;;;;;;65.80;26.87;;;4.90;99.90;;;;;;5033228;28;20332;-56
2022/01/26 01:56:54;;;;;;;73.23;28.43;;;4.90;99.90;;;;;;5032799;28;20660;-55
2022/01/26 01:59:22;;;;;;;71.40;29.83;;;5.00;99.90;;;;;;5015067;28;20182;-56
2022/01/26 02:01:48;;;;;;;63.17;27.13;;;4.90;99.90;;;;;;5032764;28;20352;-56
2022/01/26 02:04:14;;;;;;;66.93;28.17;;;4.90;99.90;;;;;;5020015;28;20719;-57
2022/01/26 02:06:43;;;;;;;66.00;28.13;;;4.90;99.90;;;;;;5030320;28;20253;-57
2022/01/26 02:09:10;;;;;;;67.47;28.33;;;4.90;99.90;;;;;;5032232;28;20190;-57
2022/01/26 02:11:47;;;;;;;70.27;27.73;;;4.90;99.90;;;;;;5032780;28;20170;-57
2022/01/26 02:14:21;;;;;;;63.10;27.40;;;4.90;99.90;;;;;;5032596;28;20287;-56
2022/01/26 02:17:05;;;;;;;66.43;26.73;;;4.90;99.90;;;;;;5032532;28;20220;-56
2022/01/26 03:00:29;;;;;;;52.37;23.33;;;5.10;99.90;;;;;;5031978;28;20177;-57
2022/01/26 03:03:10;;;;;;;58.23;23.80;;;5.10;99.90;;;;;;5031798;28;20534;-57
2022/01/26 03:05:44;;;;;;;59.07;24.30;;;5.10;99.90;;;;;;5028939;28;20526;-57
2022/01/26 03:08:09;;;;;;;56.80;24.27;;;5.20;99.90;;;;;;5028662;28;20208;-57
2022/01/26 03:10:56;;;;;;;62.07;23.30;;;5.10;99.90;;;;;;5024993;28;20251;-58
2022/01/26 03:13:27;;;;;;;52.97;23.23;;;5.10;99.90;;;;;;5031270;28;20197;-57
2022/01/26 03:15:58;;;;;;;55.13;22.50;;;5.10;99.90;;;;;;5030383;28;20189;-58
2022/01/26 03:20:54;;;;;;;56.50;24.53;;;5.10;99.90;;;;;;5030785;28;20166;-57
2022/01/26 03:34:07;;;;;;;58.93;22.77;;;5.20;99.90;;;;;;5030502;28;20540;-58
2022/01/26 03:36:43;;;;;;;56.80;22.33;;;5.20;99.90;;;;;;5012493;28;20572;-58
2022/01/26 03:39:11;;;;;;;57.60;23.97;;;5.20;99.90;;;;;;5029659;28;20652;-57
2022/01/26 03:41:42;;;;;;;49.97;22.80;;;5.20;99.90;;;;;;5030112;28;20182;-57
2022/01/26 03:44:08;;;;;;;51.67;22.60;;;5.20;99.90;;;;;;5030500;28;20235;-56
2022/01/26 03:46:34;;;;;;;52.90;23.07;;;5.20;99.90;;;;;;5029873;28;20182;-57
2022/01/26 03:49:00;;;;;;;54.77;23.07;;;5.20;99.90;;;;;;5029641;28;20194;-57
2022/01/26 03:51:27;;;;;;;53.53;22.47;;;5.20;99.90;;;;;;5030339;28;20269;-57
2022/01/26 03:53:53;;;;;;;48.33;22.40;;;5.20;99.90;;;;;;5029842;28;20718;-55
2022/01/26 03:56:18;;;;;;;50.10;22.70;;;5.20;99.90;;;;;;5030093;28;20166;-55
2022/01/26 03:58:44;;;;;;;51.30;22.17;;;5.20;99.90;;;;;;5009959;28;20188;-56
2022/01/26 04:01:10;;;;;;;53.00;21.77;;;5.20;99.90;;;;;;5028127;28;20561;-56
2022/01/26 04:03:36;;;;;;;48.10;21.23;;;5.20;99.90;;;;;;5023743;28;20188;-55
2022/01/26 04:06:02;;;;;;;59.10;23.43;;;5.20;99.90;;;;;;5029223;28;20190;-56
2022/01/26 04:08:30;;;;;;;54.83;22.27;;;5.20;99.90;;;;;;5029494;28;20645;-56
2022/01/26 04:11:46;;;;;;;46.63;20.13;;;5.30;99.90;;;;;;5029151;28;20200;-56
2022/01/26 04:13:42;;;;;;;45.17;19.07;;;5.30;99.90;;;;;;4960425;28;1383605;-56
2022/01/26 04:16:08;;;;;;;43.33;18.00;;;5.40;99.90;;;;;;5030079;28;20236;-56
2022/01/26 04:18:40;;;;;;;45.17;17.73;;;5.40;99.90;;;;;;5030454;28;20178;-56
2022/01/26 04:23:51;;;;;;;41.67;17.40;;;5.50;99.90;;;;;;5030277;28;20186;-56
2022/01/26 04:26:21;;;;;;;37.37;15.40;;;5.50;99.90;;;;;;5030251;28;20261;-56
2022/01/26 04:28:54;;;;;;;35.77;16.73;;;5.60;99.90;;;;;;5012346;28;20211;-56
2022/01/26 04:31:21;;;;;;;40.03;17.57;;;5.70;99.90;;;;;;5023549;28;20269;-56
2022/01/26 04:33:47;;;;;;;34.43;16.07;;;5.70;99.90;;;;;;5030418;28;20634;-55
2022/01/26 04:36:20;;;;;;;38.83;16.07;;;5.70;99.90;;;;;;5030461;28;20177;-56
2022/01/26 04:38:51;;;;;;;36.40;16.13;;;5.80;99.90;;;;;;5030498;28;20703;-57
2022/01/26 04:43:55;;;;;;;36.67;16.30;;;6.10;99.90;;;;;;5030235;28;20200;-57
2022/01/26 04:46:21;;;;;;;36.10;16.47;;;5.90;99.90;;;;;;5030217;28;20174;-57
2022/01/26 04:48:47;;;;;;;38.83;16.90;;;5.90;99.90;;;;;;5030273;28;20240;-57
2022/01/26 04:51:13;;;;;;;41.73;17.60;;;5.90;99.90;;;;;;5030285;28;20277;-57
2022/01/26 04:53:39;;;;;;;40.57;17.50;;;5.80;99.90;;;;;;5027327;28;20269;-57
2022/01/26 04:56:05;;;;;;;38.73;18.47;;;5.80;99.90;;;;;;5034144;28;20265;-57
2022/01/26 04:58:31;;;;;;;50.20;20.00;;;5.80;99.90;;;;;;5034062;28;20499;-57
2022/01/26 05:00:57;;;;;;;43.60;17.63;;;5.90;99.90;;;;;;5034078;28;20264;-57
2022/01/26 05:03:22;;;;;;;43.10;19.27;;;5.90;99.90;;;;;;5033640;28;20594;-58
2022/01/26 05:05:48;;;;;;;45.27;19.43;;;5.80;99.90;;;;;;5034009;28;20624;-57
2022/01/26 05:08:14;;;;;;;43.80;19.10;;;5.80;99.90;;;;;;5033551;28;20174;-58
2022/01/26 05:10:43;;;;;;;45.37;19.23;;;5.80;99.90;;;;;;5033460;28;20249;-57
2022/01/26 05:13:11;;;;;;;43.43;19.27;;;5.80;99.90;;;;;;5033566;28;20165;-57
2022/01/26 05:15:37;;;;;;;45.83;20.30;;;5.80;99.90;;;;;;5033648;28;20374;-57
2022/01/26 05:18:05;;;;;;;52.93;22.03;;;5.80;99.90;;;;;;5033487;28;20312;-57
2022/01/26 05:20:32;;;;;;;46.10;20.77;;;5.80;99.90;;;;;;5033634;28;20186;-57
2022/01/26 05:22:58;;;;;;;46.67;20.93;;;5.80;99.90;;;;;;5033482;28;20186;-57
2022/01/26 05:25:24;;;;;;;48.83;21.80;;;5.80;99.90;;;;;;5033133;28;20177;-57
2022/01/26 05:27:50;;;;;;;45.37;20.97;;;5.80;99.90;;;;;;5033843;28;20178;-57
2022/01/26 05:30:16;;;;;;;51.97;22.53;;;5.80;99.90;;;;;;5029382;28;20511;-57
2022/01/26 05:32:42;;;;;;;50.63;20.50;;;5.80;99.90;;;;;;5024333;28;20644;-57
2022/01/26 05:35:08;;;;;;;52.93;20.87;;;5.80;99.90;;;;;;5032795;28;20501;-57
2022/01/26 05:37:34;;;;;;;49.80;21.40;;;5.80;99.90;;;;;;5016020;28;20214;-57
2022/01/26 05:40:02;;;;;;;47.77;20.90;;;5.70;99.90;;;;;;5013427;28;20185;-55
2022/01/26 05:42:28;;;;;;;46.17;20.93;;;5.70;99.90;;;;;;5013414;28;20198;-57
2022/01/26 05:44:59;;;;;;;51.73;22.33;;;5.70;99.90;;;;;;5025001;28;20173;-57
2022/01/26 05:47:25;;;;;;;45.93;21.07;;;5.70;99.90;;;;;;5032678;28;20185;-56
2022/01/26 05:49:51;;;;;;;44.43;20.23;;;5.70;99.90;;;;;;5032859;28;20177;-57
2022/01/26 05:52:17;;;;;;;47.47;21.50;;;5.70;99.90;;;;;;5032707;28;20273;-57
2022/01/26 05:54:42;;;;;;;45.93;20.93;;;5.70;99.90;;;;;;5032331;28;20182;-55
2022/01/26 05:57:08;;;;;;;48.30;23.03;;;5.70;99.90;;;;;;5032857;28;20288;-56
2022/01/26 05:59:34;;;;;;;51.03;23.07;;;5.70;99.90;;;;;;5032991;28;20217;-56
2022/01/26 06:02:00;;;;;;;46.70;22.40;;;5.70;99.90;;;;;;5032347;28;20220;-56
2022/01/26 06:04:28;;;;;;;53.93;22.80;;;5.80;99.90;;;;;;5032612;28;20178;-56
2022/01/26 06:06:54;;;;;;;47.20;21.53;;;5.80;99.90;;;;;;5032721;28;20261;-56
2022/01/26 06:09:20;;;;;;;50.27;22.97;;;5.70;99.90;;;;;;5032358;28;20174;-56
2022/01/26 06:11:45;;;;;;;52.20;22.50;;;5.70;99.90;;;;;;5032313;28;20272;-56
2022/01/26 06:14:11;;;;;;;50.67;22.20;;;5.80;99.90;;;;;;5032206;28;20236;-56
2022/01/26 06:16:37;;;;;;;52.53;22.90;;;5.70;99.90;;;;;;5032435;28;20202;-57
2022/01/26 06:19:03;;;;;;;58.27;23.07;;;5.70;99.90;;;;;;5032434;28;20258;-57
2022/01/26 06:21:29;;;;;;;54.03;23.47;;;5.60;99.90;;;;;;5032567;28;20215;-55
2022/01/26 06:23:55;;;;;;;53.17;22.07;;;5.60;99.90;;;;;;5032245;28;20229;-57
2022/01/26 06:26:21;;;;;;;61.27;23.70;;;5.60;99.90;;;;;;5032354;28;20178;-57
2022/01/26 06:28:47;;;;;;;59.80;23.53;;;5.60;99.90;;;;;;5032622;28;20182;-56
2022/01/26 06:31:15;;;;;;;51.57;23.97;;;5.50;99.90;;;;;;5030735;28;20641;-57
2022/01/26 06:33:42;;;;;;;57.67;23.97;;;5.40;99.90;;;;;;5031911;28;20236;-57
2022/01/26 06:36:14;;;;;;;57.53;25.00;;;5.40;99.90;;;;;;5014279;28;20233;-57
2022/01/26 06:38:41;;;;;;;56.43;25.00;;;5.30;99.90;;;;;;5032131;28;20182;-57
2022/01/26 06:41:07;;;;;;;52.20;23.70;;;5.20;99.90;;;;;;5032068;28;20500;-57
2022/01/26 06:43:34;;;;;;;58.27;25.47;;;5.20;99.90;;;;;;5030871;28;20182;-57
2022/01/26 06:46:04;;;;;;;61.87;25.20;;;5.10;99.90;;;;;;5031237;28;20162;-58
2022/01/26 06:51:04;;;;;;;61.20;25.13;;;4.90;99.90;;;;;;5032251;28;20196;-56
2022/01/26 06:53:30;;;;;;;58.83;26.00;;;4.80;99.90;;;;;;5031924;28;20170;-57
2022/01/26 06:55:57;;;;;;;63.90;24.97;;;4.70;99.90;;;;;;5024924;28;20192;-56
2022/01/26 06:58:23;;;;;;;70.33;27.07;;;4.60;99.90;;;;;;5031420;28;20221;-57
2022/01/26 07:00:49;;;;;;;61.97;26.00;;;4.50;99.90;;;;;;5031586;28;20174;-57
2022/01/26 07:03:15;;;;;;;63.63;26.20;;;5.20;99.90;;;;;;5031937;28;20243;-57
2022/01/26 07:05:42;;;;;;;59.70;24.97;;;4.40;99.90;;;;;;5031536;28;20636;-57
2022/01/26 07:08:08;;;;;;;64.80;26.20;;;4.30;99.90;;;;;;5013808;28;20270;-57
2022/01/26 07:10:34;;;;;;;68.83;25.93;;;4.20;99.90;;;;;;5031574;28;20202;-56
2022/01/26 07:13:02;;;;;;;69.77;27.23;;;4.10;99.90;;;;;;5031658;28;20162;-58
2022/01/26 07:24:00;;;;;;;74.23;27.20;;;4.00;99.90;;;;;;4951174;29;20769;-58
2022/01/26 07:26:29;;;;;;;64.93;26.37;;;3.90;99.90;;;;;;4999146;28;20225;-58
2022/01/26 07:29:02;;;;;;;70.93;28.07;;;4.60;99.90;;;;;;5026628;28;20217;-58
2022/01/26 07:31:28;;;;;;;71.40;27.60;;;3.80;99.90;;;;;;5031489;28;20184;-57
2022/01/26 07:33:55;;;;;;;71.93;26.90;;;3.70;99.90;;;;;;5030803;28;20256;-58
2022/01/26 07:36:22;;;;;;;71.27;27.63;;;3.70;99.90;;;;;;5023964;28;20205;-57
2022/01/26 07:38:50;;;;;;;70.47;28.67;;;3.60;99.90;;;;;;5031284;28;20204;-57
2022/01/26 07:41:16;;;;;;;70.83;27.67;;;3.60;99.90;;;;;;5013332;28;20166;-58
2022/01/26 07:43:42;;;;;;;72.93;29.13;;;3.60;99.90;;;;;;5012762;28;20186;-58
2022/01/26 07:46:12;;;;;;;81.67;29.67;;;3.60;99.90;;;;;;5030817;28;20257;-58
2022/01/26 07:48:39;;;;;;;80.63;29.00;;;3.50;99.90;;;;;;5030499;28;20731;-58
2022/01/26 07:51:05;;;;;;;70.03;27.83;;;3.50;99.90;;;;;;5030999;28;20170;-59
2022/01/26 07:53:32;;;;;;;70.97;27.77;;;3.50;99.90;;;;;;5030883;28;20239;-58
2022/01/26 07:55:58;;;;;;;73.33;28.20;;;3.40;99.90;;;;;;5031028;28;20215;-58
2022/01/26 07:58:25;;;;;;;71.77;27.53;;;3.40;99.90;;;;;;5030548;28;20209;-57
2022/01/26 08:00:51;;;;;;;78.73;29.57;;;3.50;99.90;;;;;;5030926;28;20637;-57
2022/01/26 08:03:17;;;;;;;76.37;28.57;;;3.40;99.90;;;;;;5030882;28;20609;-57
2022/01/26 08:05:44;;;;;;;79.10;29.37;;;3.40;99.90;;;;;;5011915;28;20659;-57
2022/01/26 08:08:09;;;;;;;74.03;28.70;;;3.40;99.90;;;;;;5030431;28;20178;-57
2022/01/26 08:10:35;;;;;;;80.07;28.13;;;3.40;99.90;;;;;;5030494;28;20255;-58
2022/01/26 08:13:02;;;;;;;78.43;30.03;;;3.40;99.90;;;;;;5030646;28;20546;-57
2022/01/26 08:15:27;;;;;;;72.17;27.80;;;3.40;99.90;;;;;;5012940;28;20371;-57
2022/01/26 08:17:55;;;;;;;75.47;29.50;;;3.40;99.90;;;;;;5028681;28;20327;-57
2022/01/26 08:20:22;;;;;;;72.57;27.20;;;3.50;99.90;;;;;;5011418;28;20182;-57
2022/01/26 08:22:49;;;;;;;76.23;29.67;;;3.50;99.90;;;;;;5013750;28;20637;-57
2022/01/26 08:25:15;;;;;;;80.37;28.80;;;3.80;99.90;;;;;;5010726;28;20167;-58
2022/01/26 08:27:46;;;;;;;78.97;27.40;;;4.00;99.90;;;;;;5019343;28;20257;-57
2022/01/26 08:30:15;;;;;;;68.17;26.73;;;4.20;99.90;;;;;;5030238;28;20668;-57
2022/01/26 08:32:42;;;;;;;63.50;26.53;;;4.40;99.90;;;;;;5026442;28;20184;-56
2022/01/26 08:35:08;;;;;;;62.20;25.40;;;4.50;99.90;;;;;;5026679;28;20177;-56
2022/01/26 08:37:34;;;;;;;57.20;24.67;;;4.50;99.90;;;;;;5023372;28;20729;-56
2022/01/26 08:40:00;;;;;;;52.90;22.10;;;4.60;99.90;;;;;;5014785;28;20220;-57
2022/01/26 08:42:26;;;;;;;53.47;22.97;;;4.80;99.90;;;;;;5029367;28;20182;-57
2022/01/26 08:44:53;;;;;;;53.80;23.33;;;4.90;99.90;;;;;;5030146;28;20178;-58
2022/01/26 08:47:19;;;;;;;52.63;23.97;;;5.00;99.90;;;;;;5029794;28;20217;-58
2022/01/26 08:49:45;;;;;;;58.33;23.50;;;5.00;99.90;;;;;;5029907;28;20158;-57
2022/01/26 08:52:11;;;;;;;51.80;23.73;;;5.20;99.90;;;;;;5030096;28;20181;-57
2022/01/26 08:54:36;;;;;;;48.90;21.27;;;5.60;99.90;;;;;;5029624;28;20170;-55
2022/01/26 08:57:03;;;;;;;51.57;22.10;;;6.20;99.90;;;;;;5030103;28;20232;-55
2022/01/26 08:59:29;;;;;;;54.57;24.53;;;6.20;99.90;;;;;;5029110;28;20182;-55
2022/01/26 09:01:55;;;;;;;61.30;26.13;;;5.90;99.90;;;;;;5029547;28;20190;-59
2022/01/26 09:04:20;;;;;;;54.77;25.50;;;5.80;99.90;;;;;;5029767;28;20178;-58
2022/01/26 09:06:52;;;;;;;55.23;26.30;;;5.50;99.90;;;;;;5029697;28;20652;-58
2022/01/26 09:09:19;;;;;;;65.87;29.87;;;5.40;99.90;;;;;;5029747;28;20213;-58
2022/01/26 09:11:47;;;;;;;69.80;31.97;;;5.20;99.90;;;;;;5025362;28;20178;-58
2022/01/26 09:14:18;;;;;;;73.80;33.07;;;5.20;99.90;;;;;;5029276;28;20229;-58
2022/01/26 09:16:51;;;;;;;63.17;29.43;;;5.40;99.90;;;;;;5029067;28;20318;-58
2022/01/26 09:19:35;;;;;;;69.33;29.20;;;5.40;99.90;;;;;;5029476;28;20213;-58
2022/01/26 09:22:21;;;;;;;66.37;27.87;;;5.50;99.90;;;;;;4998921;28;20179;-56
2022/01/26 09:24:47;;;;;;;71.03;30.27;;;5.60;99.90;;;;;;5011442;28;20199;-60
2022/01/26 09:27:17;;;;;;;73.70;31.90;;;5.50;99.90;;;;;;5026688;28;20184;-59
2022/01/26 09:29:44;;;;;;;76.47;31.77;;;6.10;99.90;;;;;;5015284;28;20178;-59
2022/01/26 09:32:11;;;;;;;70.63;31.23;;;7.10;99.90;;;;;;5029518;28;20181;-63
2022/01/26 09:34:37;;;;;;;63.77;28.20;;;7.70;99.90;;;;;;5029528;28;20210;-62
2022/01/26 09:37:09;;;;;;;63.07;31.10;;;7.10;99.90;;;;;;5029230;28;20288;-63
2022/01/26 09:39:35;;;;;;;76.00;30.27;;;6.90;99.90;;;;;;5032708;28;20186;-63
2022/01/26 09:42:01;;;;;;;80.13;35.33;;;6.90;99.90;;;;;;5032915;28;20629;-62
2022/01/26 09:44:30;;;;;;;94.17;46.80;;;7.60;99.90;;;;;;5015012;28;20185;-79
2022/01/26 09:46:56;;;;;;;100.00;51.13;;;7.60;99.90;;;;;;5014518;28;20322;-62
2022/01/26 09:49:28;;;;;;;82.90;42.10;;;8.10;99.90;;;;;;5032763;28;20520;-63
2022/01/26 09:51:54;;;;;;;71.63;36.00;;;8.60;99.90;;;;;;5014415;28;20641;-63
2022/01/26 09:54:20;;;;;;;67.27;33.13;;;9.10;99.90;;;;;;5032729;28;20205;-61
2022/01/26 09:56:50;;;;;;;56.40;30.90;;;9.90;99.90;;;;;;5032213;28;20739;-62
2022/01/26 09:59:18;;;;;;;56.57;28.60;;;9.60;99.90;;;;;;5014841;28;20273;-62
2022/01/26 10:01:48;;;;;;;52.43;26.50;;;10.10;99.90;;;;;;5032273;28;20174;-62
2022/01/26 10:04:25;;;;;;;49.43;24.33;;;10.20;99.90;;;;;;5031950;28;20182;-60
2022/01/26 10:07:52;;;;;;;55.83;25.80;;;10.30;99.90;;;;;;5020602;28;20182;-59
2022/01/26 10:18:07;;;;;;;45.87;25.67;;;9.50;99.90;;;;;;5032009;28;20244;-61
2022/01/26 10:20:40;;;;;;;47.43;25.03;;;9.40;99.90;;;;;;5014327;28;20186;-60
2022/01/26 10:23:08;;;;;;;48.30;23.97;;;9.20;99.90;;;;;;5028710;28;20217;-60
2022/01/26 10:25:34;;;;;;;49.17;24.87;;;9.30;99.90;;;;;;5035348;28;20180;-61
2022/01/26 10:28:00;;;;;;;51.17;24.97;;;9.50;99.90;;;;;;5045908;28;20174;-61
2022/01/26 10:30:26;;;;;;;44.13;23.03;;;10.00;99.90;;;;;;5014264;28;20231;-61
2022/01/26 10:32:52;;;;;;;38.97;21.07;;;10.40;99.90;;;;;;5032279;28;20273;-61
2022/01/26 10:35:17;;;;;;;43.80;20.57;;;11.30;99.90;;;;;;5031746;28;20340;-60
2022/01/26 10:37:55;;;;;;;41.80;18.57;;;11.90;99.90;;;;;;5029925;28;20717;-59
2022/01/26 10:40:25;;;;;;;42.27;17.97;;;12.70;99.90;;;;;;5026353;28;20178;-59
2022/01/26 10:43:05;;;;;;;42.97;17.63;;;12.90;99.90;;;;;;5018862;28;20276;-59
2022/01/26 10:45:37;;;;;;;25.40;10.53;;;12.50;99.90;;;;;;5031823;28;20637;-60
2022/01/26 10:48:28;;;;;;;28.87;11.87;;;12.30;99.90;;;;;;5030525;28;20181;-60
2022/01/26 10:51:32;;;;;;;31.93;11.80;;;12.80;99.90;;;;;;5013318;28;20263;-60
2022/01/26 10:54:04;;;;;;;34.20;12.23;;;12.10;99.90;;;;;;5028665;28;20208;-60
2022/01/26 10:56:30;;;;;;;31.43;13.40;;;12.50;99.90;;;;;;5031480;28;20177;-60
2022/01/26 10:58:58;;;;;;;39.93;11.77;;;12.90;99.90;;;;;;5013785;28;20181;-60
2022/01/26 11:01:24;;;;;;;32.17;12.33;;;12.70;99.90;;;;;;5024359;28;20174;-60
2022/01/26 11:03:50;;;;;;;25.37;12.73;;;12.20;99.90;;;;;;5012833;28;20223;-60
2022/01/26 11:06:19;;;;;;;26.33;12.30;;;12.10;99.90;;;;;;5033876;28;20652;-60
2022/01/26 11:08:45;;;;;;;23.70;10.73;;;11.70;99.90;;;;;;5040211;28;20182;-60
2022/01/26 11:11:19;;;;;;;31.30;11.87;;;11.00;99.90;;;;;;5012419;28;20181;-60
2022/01/26 11:13:45;;;;;;;20.40;9.97;;;10.80;99.90;;;;;;5029342;28;20229;-59
2022/01/26 11:16:13;;;;;;;24.30;10.53;;;10.50;99.90;;;;;;5031275;28;20176;-59
2022/01/26 11:18:48;;;;;;;30.50;12.00;;;10.10;99.90;;;;;;5029308;28;20205;-59
2022/01/26 11:21:35;;;;;;;23.57;11.30;;;10.00;99.90;;;;;;5030286;28;20252;-59
2022/01/26 11:24:10;;;;;;;33.00;12.23;;;9.80;99.90;;;;;;5012557;28;20188;-60
2022/01/26 11:26:42;;;;;;;26.73;12.77;;;9.70;99.90;;;;;;5031055;28;20181;-60
2022/01/26 11:29:35;;;;;;;31.37;13.33;;;9.70;99.90;;;;;;5024348;28;20192;-60
2022/01/26 11:32:16;;;;;;;28.37;12.90;;;9.70;99.90;;;;;;5036653;28;20209;-59
2022/01/26 11:34:42;;;;;;;34.67;12.83;;;10.00;99.90;;;;;;5030017;28;20185;-59
2022/01/26 11:37:17;;;;;;;29.97;12.60;;;9.60;99.90;;;;;;5023742;28;20224;-59
2022/01/26 11:45:34;;;;;;;25.67;12.83;;;9.70;99.90;;;;;;5030747;28;20166;-59
2022/01/26 11:48:10;;;;;;;31.57;12.57;;;10.10;99.90;;;;;;5030141;28;20177;-59
2022/01/26 11:50:48;;;;;;;28.87;12.03;;;10.80;99.90;;;;;;5018310;28;20209;-59
2022/01/26 11:53:23;;;;;;;34.60;13.73;;;11.50;99.90;;;;;;5026972;28;20186;-59
2022/01/26 11:55:52;;;;;;;26.20;12.47;;;13.10;99.90;;;;;;5024116;28;20228;-57
2022/01/26 11:58:34;;;;;;;29.23;12.27;;;13.50;99.90;;;;;;5029141;28;20331;-57
2022/01/26 12:01:21;;;;;;;26.43;13.27;;;13.70;99.90;;;;;;5026154;28;20190;-57
2022/01/26 12:04:01;;;;;;;24.47;12.20;;;13.50;99.90;;;;;;5022334;28;20181;-58
2022/01/26 12:06:37;;;;;;;42.00;13.47;;;12.80;99.90;;;;;;5029055;28;20256;-58
2022/01/26 12:09:06;;;;;;;26.37;12.53;;;12.70;99.90;;;;;;5028279;28;20182;-58
2022/01/26 12:11:32;;;;;;;30.00;13.33;;;12.40;99.90;;;;;;5030233;28;20281;-58
2022/01/26 12:14:04;;;;;;;26.00;11.93;;;12.00;99.90;;;;;;5028253;28;20221;-58
2022/01/26 12:16:40;;;;;;;29.07;12.23;;;12.10;99.90;;;;;;5028076;28;20201;-58
2022/01/26 12:38:16;;;;;;;20.60;10.47;;;10.70;99.90;;;;;;5018084;28;20197;-56
2022/01/26 12:43:37;;;;;;;21.50;10.63;;;10.40;99.90;;;;;;5029029;28;20192;-57
2022/01/26 12:46:08;;;;;;;24.37;11.00;;;10.30;99.90;;;;;;5028502;28;20170;-57
2022/01/26 12:48:37;;;;;;;24.90;11.40;;;10.40;99.90;;;;;;5028608;28;20174;-57
2022/01/26 12:51:06;;;;;;;20.73;10.30;;;10.50;99.90;;;;;;5028377;28;20181;-57
2022/01/26 12:53:35;;;;;;;24.20;10.80;;;10.60;99.90;;;;;;5028624;28;20216;-56
2022/01/26 12:56:06;;;;;;;26.47;11.00;;;10.70;99.90;;;;;;5023378;28;20182;-56
2022/01/26 12:58:35;;;;;;;23.63;10.73;;;10.80;99.90;;;;;;5029839;28;20233;-57
2022/01/26 13:01:06;;;;;;;23.33;10.40;;;10.90;99.90;;;;;;5029704;28;20649;-56
2022/01/26 13:03:34;;;;;;;22.93;10.03;;;11.10;99.90;;;;;;5025403;28;20248;-56
2022/01/26 13:06:07;;;;;;;22.00;10.03;;;11.00;99.90;;;;;;5029906;28;20177;-56
2022/01/26 13:08:43;;;;;;;29.27;10.50;;;11.00;99.90;;;;;;5020907;28;20182;-56
2022/01/26 13:11:09;;;;;;;21.57;11.07;;;11.00;99.90;;;;;;5010149;28;20206;-57
2022/01/26 13:13:36;;;;;;;27.53;11.37;;;10.70;99.90;;;;;;4996027;28;20206;-57
2022/01/26 13:16:20;;;;;;;27.33;12.77;;;10.70;99.90;;;;;;5016328;28;20260;-57
2022/01/26 13:19:13;;;;;;;27.27;11.80;;;10.80;99.90;;;;;;5033320;28;20224;-56
2022/01/26 13:35:13;;;;;;;48.33;11.80;;;10.50;99.90;;;;;;5033058;28;20170;-57
2022/01/26 13:45:46;;;;;;;34.47;11.93;;;10.00;99.90;;;;;;5032785;28;20201;-60
2022/01/26 13:50:54;;;;;;;30.70;12.07;;;9.70;99.90;;;;;;5013125;28;20572;-61
2022/01/26 13:53:25;;;;;;;25.37;11.73;;;9.20;99.90;;;;;;5018873;28;20272;-62
2022/01/26 13:56:08;;;;;;;24.77;11.80;;;9.50;99.90;;;;;;5032822;28;20177;-59
2022/01/26 14:01:21;;;;;;;23.00;10.87;;;9.50;99.90;;;;;;5031733;28;20184;-58
2022/01/26 14:03:50;;;;;;;27.33;12.90;;;9.10;99.90;;;;;;5032253;28;20223;-58
2022/01/26 14:06:16;;;;;;;30.80;12.40;;;9.40;99.90;;;;;;5032172;28;20178;-58
2022/01/26 14:08:42;;;;;;;31.40;12.87;;;9.50;99.90;;;;;;5032351;28;20703;-58
2022/01/26 14:11:08;;;;;;;26.97;13.03;;;9.50;99.90;;;;;;5030731;28;20265;-58
2022/01/26 14:13:36;;;;;;;27.33;12.33;;;9.50;99.90;;;;;;5032120;28;20269;-59
2022/01/26 14:16:04;;;;;;;27.07;11.97;;;9.40;99.90;;;;;;5031947;28;20185;-58
2022/01/26 14:18:48;;;;;;;28.80;12.00;;;9.40;99.90;;;;;;5032061;28;20304;-59
2022/01/26 14:21:29;;;;;;;32.40;12.67;;;9.50;99.90;;;;;;5032013;28;20232;-59
2022/01/26 14:24:23;;;;;;;29.07;11.90;;;9.70;99.90;;;;;;5031525;28;20185;-58
2022/01/26 14:26:51;;;;;;;25.60;11.43;;;9.50;99.90;;;;;;5030467;28;20645;-58
2022/01/26 14:29:33;;;;;;;28.77;11.63;;;9.50;99.90;;;;;;5031959;28;20181;-58
2022/01/26 14:35:02;;;;;;;25.13;11.23;;;9.40;99.90;;;;;;5025241;28;20657;-58
2022/01/26 14:40:37;;;;;;;29.00;11.23;;;9.40;99.90;;;;;;5030993;28;20192;-59
2022/01/26 15:57:45;;;;;;;21.00;8.82;;;12.70;99.90;;;;;;5020282;28;20589;-65
2022/01/26 16:08:36;;;;;;;19.40;8.43;;;11.90;99.90;;;;;;5010637;28;20536;-66
2022/01/26 16:16:59;;;;;;;22.67;8.97;;;10.80;99.90;;;;;;5010322;28;20254;-63
2022/01/26 17:43:17;;;;;;;26.07;10.90;;;8.90;99.90;;;;;;5032172;28;20221;-58
2022/01/26 18:16:23;;;;;;;21.37;10.00;;;8.80;99.90;;;;;;5030797;28;20727;-57
2022/01/26 18:32:42;;;;;;;22.40;10.47;;;8.50;99.90;;;;;;5030786;28;20189;-58
2022/01/26 18:40:48;;;;;;;23.17;11.67;;;8.30;99.90;;;;;;5025691;28;20212;-63
2022/01/26 18:51:27;;;;;;;26.37;10.77;;;8.30;99.90;;;;;;5031972;28;20244;-55
2022/01/26 18:53:53;;;;;;;30.90;15.47;;;8.30;99.90;;;;;;5030694;28;20182;-55
2022/01/26 18:56:19;;;;;;;39.83;17.50;;;8.30;99.90;;;;;;5025637;28;20685;-55
2022/01/26 18:58:45;;;;;;;36.27;18.40;;;8.30;99.90;;;;;;5022577;28;20217;-55
2022/01/26 19:01:10;;;;;;;27.23;13.10;;;8.30;99.90;;;;;;5030874;28;20644;-55
2022/01/26 19:03:36;;;;;;;29.97;12.43;;;8.30;99.90;;;;;;5013467;28;20213;-55
2022/01/26 19:06:03;;;;;;;25.57;13.70;;;8.30;99.90;;;;;;5024430;28;20193;-55
2022/01/26 19:08:30;;;;;;;29.13;12.83;;;8.30;99.90;;;;;;5013229;28;20511;-55
2022/01/26 19:10:56;;;;;;;26.50;11.80;;;8.40;99.90;;;;;;5012446;28;20237;-55
2022/01/26 19:13:29;;;;;;;26.30;11.27;;;8.50;99.90;;;;;;5030689;28;20174;-55
2022/01/26 19:16:00;;;;;;;27.00;11.37;;;8.50;99.90;;;;;;5030367;28;20272;-55
2022/01/26 19:18:43;;;;;;;24.50;11.77;;;8.60;99.90;;;;;;5030847;28;20213;-55
2022/01/26 19:26:32;;;;;;;27.20;12.57;;;8.60;99.90;;;;;;5029269;28;20184;-54